Time;durP1;ratioP1;P1;durP2;ratioP2;P2;SDS_P1;SDS_P2;PMS_P1;PMS_P2;Temp;Humidity;BMP_temperature;BMP_pressure;BME280_temperature;BME280_humidity;BME280_pressure;Samples;Min_cycle;Max_cycle;Signal;HPM_P1;HPM_P2
2024/02/07 00:00:29;;;;;;;;;;;-1.40;99.90;;;;;;5053670;28;19932;-64
2024/02/07 00:02:56;;;;;;;;;;;-1.40;99.90;;;;;;5054783;28;20442;-61
2024/02/07 00:05:22;;;;;;;;;;;-1.40;99.90;;;;;;5053691;28;19933;-64
2024/02/07 00:07:49;;;;;;;;;;;-1.40;99.90;;;;;;5053569;28;19968;-67
2024/02/07 00:10:16;;;;;;;;;;;-1.40;99.90;;;;;;5052475;28;19960;-64
2024/02/07 00:12:43;;;;;;;;;;;-1.40;99.90;;;;;;5052308;28;19936;-65
2024/02/07 00:15:10;;;;;;;;;;;-1.40;99.90;;;;;;5052359;28;20745;-62
2024/02/07 00:17:37;;;;;;;;;;;-1.40;99.90;;;;;;5055663;28;20057;-62
2024/02/07 00:20:04;;;;;;;;;;;-1.40;99.90;;;;;;5051225;28;19924;-66
2024/02/07 00:22:31;;;;;;;;;;;-1.40;99.90;;;;;;5056558;28;20057;-66
2024/02/07 00:24:58;;;;;;;;;;;-1.40;99.90;;;;;;5054430;28;19925;-68
2024/02/07 00:27:25;;;;;;;;;;;-1.40;99.90;;;;;;5053003;28;19933;-68
2024/02/07 00:29:51;;;;;;;;;;;-1.40;99.90;;;;;;5050254;28;20019;-63
2024/02/07 00:32:18;;;;;;;;;;;-1.40;99.90;;;;;;5054591;28;20015;-60
2024/02/07 00:34:45;;;;;;;;;;;-1.40;99.90;;;;;;5059380;28;20019;-66
2024/02/07 00:37:12;;;;;;;;;;;-1.40;99.90;;;;;;5053910;28;19932;-63
2024/02/07 00:39:39;;;;;;;;;;;-1.40;99.90;;;;;;5051308;28;19924;-61
2024/02/07 00:42:05;;;;;;;;;;;-1.50;99.90;;;;;;5051993;28;19963;-63
2024/02/07 00:44:32;;;;;;;;;;;-1.50;99.90;;;;;;5052072;28;19924;-65
2024/02/07 00:46:59;;;;;;;;;;;-1.50;99.90;;;;;;5051430;28;19971;-62
2024/02/07 00:49:26;;;;;;;;;;;-1.50;99.90;;;;;;5053515;28;20337;-63
2024/02/07 00:51:53;;;;;;;;;;;-1.50;99.90;;;;;;5050905;28;20433;-67
2024/02/07 00:54:21;;;;;;;;;;;-1.50;99.90;;;;;;5052837;28;19925;-63
2024/02/07 00:56:48;;;;;;;;;;;-1.50;99.90;;;;;;5057850;28;19928;-64
2024/02/07 00:59:14;;;;;;;;;;;-1.50;99.90;;;;;;5051174;28;20391;-64
2024/02/07 01:01:41;;;;;;;;;;;-1.50;99.90;;;;;;5059280;28;19936;-65
2024/02/07 01:04:08;;;;;;;;;;;-1.50;99.90;;;;;;5055274;28;20389;-63
2024/02/07 01:06:35;;;;;;;;;;;-1.50;99.90;;;;;;5054808;28;20691;-61
2024/02/07 01:09:02;;;;;;;;;;;-1.50;99.90;;;;;;5053940;28;19925;-61
2024/02/07 01:11:29;;;;;;;;;;;-1.50;99.90;;;;;;5058541;28;20078;-66
2024/02/07 01:13:56;;;;;;;;;;;-1.40;99.90;;;;;;5056641;28;19924;-64
2024/02/07 01:16:23;;;;;;;;;;;-1.40;99.90;;;;;;5052479;28;19931;-64
2024/02/07 01:18:53;;;;;;;;;;;-1.40;99.90;;;;;;5059923;28;19971;-61
2024/02/07 01:21:20;;;;;;;;;;;-1.40;99.90;;;;;;5055424;28;19935;-66
2024/02/07 01:23:50;;;;;;;;;;;-1.40;99.90;;;;;;5057417;28;19933;-63
2024/02/07 01:26:16;;;;;;;;;;;-1.40;99.90;;;;;;5061011;28;19924;-65
2024/02/07 01:28:43;;;;;;;;;;;-1.40;99.90;;;;;;5058723;28;20658;-63
2024/02/07 01:31:10;;;;;;;;;;;-1.40;99.90;;;;;;5060948;28;19936;-64
2024/02/07 01:33:37;;;;;;;;;;;-1.40;99.90;;;;;;5050607;28;19925;-63
2024/02/07 01:36:06;;;;;;;;;;;-1.40;99.90;;;;;;5054385;28;19925;-61
2024/02/07 01:38:33;;;;;;;;;;;-1.40;99.90;;;;;;5058879;28;19925;-68
2024/02/07 01:41:00;;;;;;;;;;;-1.40;99.90;;;;;;5063889;28;19935;-62
2024/02/07 01:43:29;;;;;;;;;;;-1.40;99.90;;;;;;5053788;28;19978;-62
2024/02/07 01:45:56;;;;;;;;;;;-1.40;99.90;;;;;;5057482;28;19929;-62
2024/02/07 01:48:23;;;;;;;;;;;-1.40;99.90;;;;;;5055383;28;20586;-64
2024/02/07 01:50:51;;;;;;;;;;;-1.40;99.90;;;;;;5057344;28;20008;-62
2024/02/07 01:53:18;;;;;;;;;;;-1.40;99.90;;;;;;5057552;28;19929;-62
2024/02/07 01:55:46;;;;;;;;;;;-1.40;99.90;;;;;;5054700;28;19936;-67
2024/02/07 01:58:14;;;;;;;;;;;-1.40;99.90;;;;;;5056888;28;20025;-66
2024/02/07 02:00:40;;;;;;;;;;;-1.40;99.90;;;;;;5055078;28;20329;-61
2024/02/07 02:03:08;;;;;;;;;;;-1.40;99.90;;;;;;5051510;28;19931;-69
2024/02/07 02:05:35;;;;;;;;;;;-1.40;99.90;;;;;;5053184;28;19931;-63
2024/02/07 02:08:02;;;;;;;;;;;-1.40;99.90;;;;;;5058987;28;19932;-60
2024/02/07 02:10:29;;;;;;;;;;;-1.40;99.90;;;;;;5054680;28;19929;-62
2024/02/07 02:12:56;;;;;;;;;;;-1.40;99.90;;;;;;5059742;28;19924;-62
2024/02/07 02:15:23;;;;;;;;;;;-1.40;99.90;;;;;;5055384;28;20499;-62
2024/02/07 02:17:52;;;;;;;;;;;-1.30;99.90;;;;;;5052784;28;20639;-66
2024/02/07 02:20:19;;;;;;;;;;;-1.30;99.90;;;;;;5054480;28;19925;-62
2024/02/07 02:23:07;;;;;;;;;;;-1.30;99.90;;;;;;5054048;28;19924;-65
2024/02/07 02:25:49;;;;;;;;;;;-1.30;99.90;;;;;;5025820;28;19953;-63
2024/02/07 02:28:52;;;;;;;;;;;-1.40;99.90;;;;;;5054049;28;20023;-66
2024/02/07 02:31:21;;;;;;;;;;;-1.40;99.90;;;;;;5062109;28;19987;-61
2024/02/07 02:33:50;;;;;;;;;;;-1.40;99.90;;;;;;5052927;28;19951;-65
2024/02/07 02:36:17;;;;;;;;;;;-1.40;99.90;;;;;;5051381;28;19975;-62
2024/02/07 02:38:45;;;;;;;;;;;-1.40;99.90;;;;;;5057361;28;20334;-71
2024/02/07 02:41:14;;;;;;;;;;;-1.40;99.90;;;;;;5054581;28;19932;-62
2024/02/07 02:43:41;;;;;;;;;;;-1.40;99.90;;;;;;5059805;28;19924;-64
2024/02/07 02:46:09;;;;;;;;;;;-1.40;99.90;;;;;;5054488;28;19928;-61
2024/02/07 02:48:37;;;;;;;;;;;-1.40;99.90;;;;;;5055509;28;19925;-64
2024/02/07 02:51:04;;;;;;;;;;;-1.50;99.90;;;;;;5052516;28;20368;-61
2024/02/07 02:53:33;;;;;;;;;;;-1.50;99.90;;;;;;5055691;28;19932;-63
2024/02/07 02:56:03;;;;;;;;;;;-1.50;99.90;;;;;;5053790;28;20504;-61
2024/02/07 02:58:32;;;;;;;;;;;-1.50;99.90;;;;;;5058623;28;20007;-65
2024/02/07 03:01:10;;;;;;;;;;;-1.50;99.90;;;;;;5055142;28;19979;-62
2024/02/07 03:03:37;;;;;;;;;;;-1.50;99.90;;;;;;5057931;28;19933;-61
2024/02/07 03:06:17;;;;;;;;;;;-1.60;99.90;;;;;;5053562;28;19929;-61
2024/02/07 03:08:54;;;;;;;;;;;-1.60;99.90;;;;;;5061149;28;19929;-65
2024/02/07 03:11:21;;;;;;;;;;;-1.60;99.90;;;;;;5056898;28;19925;-65
2024/02/07 03:13:48;;;;;;;;;;;-1.70;99.90;;;;;;5057586;28;19968;-64
2024/02/07 03:16:15;;;;;;;;;;;-1.70;99.90;;;;;;5058385;28;20282;-62
2024/02/07 03:18:42;;;;;;;;;;;-1.70;99.90;;;;;;5055885;28;20000;-61
2024/02/07 03:21:10;;;;;;;;;;;-1.70;99.90;;;;;;5051865;28;19932;-62
2024/02/07 03:23:38;;;;;;;;;;;-1.80;99.90;;;;;;5056989;28;19971;-63
2024/02/07 03:26:05;;;;;;;;;;;-1.80;99.90;;;;;;5055017;28;19978;-64
2024/02/07 03:28:32;;;;;;;;;;;-1.80;99.90;;;;;;5051912;28;19978;-67
2024/02/07 03:30:59;;;;;;;;;;;-1.90;99.90;;;;;;5056129;28;19970;-63
2024/02/07 03:33:26;;;;;;;;;;;-1.90;99.90;;;;;;5054510;28;19928;-64
2024/02/07 03:35:57;;;;;;;;;;;-1.90;99.90;;;;;;5054568;28;19933;-65
2024/02/07 03:38:24;;;;;;;;;;;-1.90;99.90;;;;;;5055122;28;19924;-62
2024/02/07 03:40:51;;;;;;;;;;;-1.90;99.90;;;;;;5050969;28;19925;-62
2024/02/07 03:43:18;;;;;;;;;;;-1.90;99.90;;;;;;5054167;28;19986;-62
2024/02/07 03:45:45;;;;;;;;;;;-2.00;99.90;;;;;;5053887;28;19925;-63
2024/02/07 03:48:15;;;;;;;;;;;-2.00;99.90;;;;;;5055197;28;19970;-62
2024/02/07 03:50:42;;;;;;;;;;;-2.00;99.90;;;;;;5050059;28;20378;-61
2024/02/07 03:53:09;;;;;;;;;;;-1.90;99.90;;;;;;5051264;28;19924;-61
2024/02/07 03:55:36;;;;;;;;;;;-1.90;99.90;;;;;;5053231;28;19967;-66
2024/02/07 03:58:05;;;;;;;;;;;-1.90;99.90;;;;;;5049516;28;19925;-61
2024/02/07 04:00:32;;;;;;;;;;;-1.90;99.90;;;;;;5052854;28;20023;-61
2024/02/07 04:03:00;;;;;;;;;;;-1.90;99.90;;;;;;5056840;28;19952;-64
2024/02/07 04:05:26;;;;;;;;;;;-1.90;99.90;;;;;;5052409;28;19928;-61
2024/02/07 04:07:54;;;;;;;;;;;-1.90;99.90;;;;;;5052844;28;20027;-64
2024/02/07 04:10:23;;;;;;;;;;;-1.90;99.90;;;;;;5059471;28;20430;-63
2024/02/07 05:16:03;;;;;;;;;;;-2.10;99.90;;;;;;5050629;28;19924;-63
2024/02/07 05:18:29;;;;;;;;;;;-2.10;99.90;;;;;;5057348;28;19924;-69
2024/02/07 05:20:56;;;;;;;;;;;-2.10;99.90;;;;;;5046352;28;19929;-61
2024/02/07 05:23:23;;;;;;;;;;;-2.10;99.90;;;;;;5053449;28;19925;-62
2024/02/07 05:25:50;;;;;;;;;;;-2.10;99.90;;;;;;5050570;28;19925;-65
2024/02/07 05:28:17;;;;;;;;;;;-2.10;99.90;;;;;;5052498;28;19932;-64
2024/02/07 05:30:45;;;;;;;;;;;-2.10;99.90;;;;;;5052143;28;19944;-61
2024/02/07 05:33:12;;;;;;;;;;;-2.10;99.90;;;;;;5049960;28;20443;-65
2024/02/07 05:35:39;;;;;;;;;;;-2.10;99.90;;;;;;5049655;28;19960;-62
2024/02/07 05:38:06;;;;;;;;;;;-2.10;99.90;;;;;;5049388;28;19998;-62
2024/02/07 05:40:32;;;;;;;;;;;-2.00;99.90;;;;;;5050254;28;20028;-62
2024/02/07 05:42:59;;;;;;;;;;;-2.10;99.90;;;;;;5055852;28;19932;-62
2024/02/07 05:45:26;;;;;;;;;;;-2.10;99.90;;;;;;5048162;28;19998;-62
2024/02/07 05:47:53;;;;;;;;;;;-2.00;99.90;;;;;;5051957;28;19979;-64
2024/02/07 05:50:20;;;;;;;;;;;-2.00;99.90;;;;;;5046359;28;19924;-62
2024/02/07 05:52:47;;;;;;;;;;;-2.00;99.90;;;;;;5054621;28;19924;-64
2024/02/07 05:55:14;;;;;;;;;;;-1.90;99.90;;;;;;5050021;28;19928;-62
2024/02/07 05:57:40;;;;;;;;;;;-1.90;99.90;;;;;;5047464;28;19960;-63
2024/02/07 06:00:09;;;;;;;;;;;-1.90;99.90;;;;;;5047835;28;19935;-65
2024/02/07 06:02:38;;;;;;;;;;;-1.90;99.90;;;;;;5046399;28;19933;-64
2024/02/07 06:05:06;;;;;;;;;;;-1.90;99.90;;;;;;5058325;28;20028;-65
2024/02/07 06:07:33;;;;;;;;;;;-1.90;99.90;;;;;;5051418;28;20015;-63
2024/02/07 06:10:00;;;;;;;;;;;-1.80;99.90;;;;;;5052252;28;19933;-65
2024/02/07 06:12:28;;;;;;;;;;;-1.80;99.90;;;;;;5056513;28;20041;-66
2024/02/07 06:14:56;;;;;;;;;;;-1.80;99.90;;;;;;5057234;28;19954;-62
2024/02/07 06:17:23;;;;;;;;;;;-1.80;99.90;;;;;;5058979;28;19956;-64
2024/02/07 06:19:50;;;;;;;;;;;-1.70;99.90;;;;;;5057930;28;19929;-62
2024/02/07 06:22:17;;;;;;;;;;;-1.70;99.90;;;;;;5054419;28;20470;-64
2024/02/07 06:24:46;;;;;;;;;;;-1.70;99.90;;;;;;5055785;28;20865;-65
2024/02/07 06:27:13;;;;;;;;;;;-1.70;99.90;;;;;;5054465;28;19925;-64
2024/02/07 06:29:39;;;;;;;;;;;-1.70;99.90;;;;;;5056304;28;20573;-67
2024/02/07 06:32:09;;;;;;;;;;;-1.70;99.90;;;;;;5053284;28;19975;-64
2024/02/07 06:34:37;;;;;;;;;;;-1.70;99.90;;;;;;5057344;28;19959;-68
2024/02/07 06:37:04;;;;;;;;;;;-1.70;99.90;;;;;;5060247;28;19979;-63
2024/02/07 06:39:31;;;;;;;;;;;-1.60;99.90;;;;;;5053479;28;19979;-64
2024/02/07 06:41:57;;;;;;;;;;;-1.60;99.90;;;;;;5054043;28;19931;-62
2024/02/07 06:44:24;;;;;;;;;;;-1.60;99.90;;;;;;5059004;28;20435;-65
2024/02/07 06:46:51;;;;;;;;;;;-1.60;99.90;;;;;;5053584;28;19928;-64
2024/02/07 06:49:18;;;;;;;;;;;-1.60;99.90;;;;;;5059923;28;20045;-62
2024/02/07 06:51:45;;;;;;;;;;;-1.60;99.90;;;;;;5052444;28;20559;-62
2024/02/07 06:54:13;;;;;;;;;;;-1.60;99.90;;;;;;5063720;28;19924;-65
2024/02/07 06:56:40;;;;;;;;;;;-1.60;99.90;;;;;;5061524;28;19968;-61
2024/02/07 06:59:11;;;;;;;;;;;-1.60;99.90;;;;;;5056314;28;20211;-60
2024/02/07 07:01:38;;;;;;;;;;;-1.60;99.90;;;;;;5062547;28;19925;-70
2024/02/07 07:04:05;;;;;;;;;;;-1.60;99.90;;;;;;5050422;28;19928;-66
2024/02/07 07:06:32;;;;;;;;;;;-1.60;99.90;;;;;;5057285;28;19986;-60
2024/02/07 07:08:59;;;;;;;;;;;-1.60;99.90;;;;;;5057165;28;19925;-61
2024/02/07 07:11:26;;;;;;;;;;;-1.60;99.90;;;;;;5056465;28;19935;-61
2024/02/07 07:13:53;;;;;;;;;;;-1.60;99.90;;;;;;5054831;28;19964;-60
2024/02/07 07:16:23;;;;;;;;;;;-1.60;99.90;;;;;;5052661;28;19971;-60
2024/02/07 07:18:52;;;;;;;;;;;-1.60;99.90;;;;;;5055085;28;20442;-61
2024/02/07 07:21:19;;;;;;;;;;;-1.60;99.90;;;;;;5037299;28;19933;-61
2024/02/07 07:23:46;;;;;;;;;;;-1.60;99.90;;;;;;5034772;28;19933;-64
2024/02/07 07:26:13;;;;;;;;;;;-1.60;99.90;;;;;;5031249;28;19929;-60
2024/02/07 07:28:40;;;;;;;;;;;-1.60;99.90;;;;;;5030815;28;19961;-64
2024/02/07 07:31:07;;;;;;;;;;;-1.60;99.90;;;;;;5038826;28;19935;-62
2024/02/07 07:33:33;;;;;;;;;;;-1.60;99.90;;;;;;5031315;28;20008;-63
2024/02/07 07:36:00;;;;;;;;;;;-1.60;99.90;;;;;;5033071;28;19929;-64
2024/02/07 07:38:27;;;;;;;;;;;-1.60;99.90;;;;;;5038563;28;20322;-62
2024/02/07 07:40:54;;;;;;;;;;;-1.50;99.90;;;;;;5035459;28;19925;-62
2024/02/07 07:43:21;;;;;;;;;;;-1.50;99.90;;;;;;5040127;28;19940;-63
2024/02/07 07:45:47;;;;;;;;;;;-1.50;99.90;;;;;;5035753;28;19925;-63
2024/02/07 07:48:15;;;;;;;;;;;-1.50;99.90;;;;;;5033868;28;19929;-61
2024/02/07 07:50:45;;;;;;;;;;;-1.40;99.90;;;;;;5029618;28;19936;-65
2024/02/07 07:53:12;;;;;;;;;;;-1.40;99.90;;;;;;5036586;28;19971;-66
2024/02/07 07:55:39;;;;;;;;;;;-1.40;99.90;;;;;;5035914;28;19964;-61
2024/02/07 07:58:06;;;;;;;;;;;-1.40;99.90;;;;;;5037484;28;19964;-62
2024/02/07 08:00:34;;;;;;;;;;;-1.40;99.90;;;;;;5034523;28;19971;-63
2024/02/07 08:03:01;;;;;;;;;;;-1.40;99.90;;;;;;5025536;28;19930;-66
2024/02/07 08:05:29;;;;;;;;;;;-1.50;99.90;;;;;;5033156;28;20411;-61
2024/02/07 08:07:56;;;;;;;;;;;-1.50;99.90;;;;;;5025111;28;19933;-62
2024/02/07 08:10:23;;;;;;;;;;;-1.40;99.90;;;;;;5031715;28;19925;-62
2024/02/07 08:12:50;;;;;;;;;;;-1.50;99.90;;;;;;5023573;28;19980;-61
2024/02/07 08:15:16;;;;;;;;;;;-1.50;99.90;;;;;;5022362;28;19933;-64
2024/02/07 08:17:43;;;;;;;;;;;-1.50;99.90;;;;;;5033808;28;19990;-61
2024/02/07 08:20:10;;;;;;;;;;;-1.50;99.90;;;;;;5024819;28;19971;-63
2024/02/07 08:22:37;;;;;;;;;;;-1.50;99.90;;;;;;5054261;28;19924;-66
2024/02/07 08:25:04;;;;;;;;;;;-1.50;99.90;;;;;;5059110;28;19985;-61
2024/02/07 08:27:31;;;;;;;;;;;-1.40;99.90;;;;;;5051804;28;20286;-61
2024/02/07 08:29:58;;;;;;;;;;;-1.40;99.90;;;;;;5051785;28;19928;-62
2024/02/07 08:32:25;;;;;;;;;;;-1.40;99.90;;;;;;5055039;28;20421;-62
2024/02/07 08:34:51;;;;;;;;;;;-1.40;99.90;;;;;;5051479;28;19971;-67
2024/02/07 08:37:21;;;;;;;;;;;-1.40;99.90;;;;;;5048432;28;20047;-61
2024/02/07 08:39:49;;;;;;;;;;;-1.40;99.90;;;;;;5054155;28;19932;-61
2024/02/07 08:42:16;;;;;;;;;;;-1.40;99.90;;;;;;5053697;28;19925;-62
2024/02/07 08:44:42;;;;;;;;;;;-1.30;99.90;;;;;;5053367;28;20457;-65
2024/02/07 08:47:09;;;;;;;;;;;-1.30;99.90;;;;;;5050217;28;19940;-63
2024/02/07 08:49:36;;;;;;;;;;;-1.20;99.90;;;;;;5055435;28;20544;-64
2024/02/07 08:52:03;;;;;;;;;;;-1.20;99.90;;;;;;5056502;28;19932;-68
2024/02/07 08:54:32;;;;;;;;;;;-1.20;99.90;;;;;;5058012;28;19925;-62
2024/02/07 08:56:59;;;;;;;;;;;-1.20;99.90;;;;;;5055175;28;20307;-60
2024/02/07 08:59:26;;;;;;;;;;;-1.10;99.90;;;;;;5051343;28;19929;-61
2024/02/07 09:01:53;;;;;;;;;;;-1.10;99.90;;;;;;5053939;28;19968;-61
2024/02/07 09:04:20;;;;;;;;;;;-1.10;99.90;;;;;;5053074;28;19999;-61
2024/02/07 09:06:46;;;;;;;;;;;-1.20;99.90;;;;;;5052131;28;20391;-64
2024/02/07 09:09:13;;;;;;;;;;;-1.10;99.90;;;;;;5053427;28;20313;-61
2024/02/07 09:11:40;;;;;;;;;;;-1.20;99.90;;;;;;5053833;28;20037;-66
2024/02/07 09:14:07;;;;;;;;;;;-1.10;99.90;;;;;;5048249;28;20497;-62
2024/02/07 09:16:34;;;;;;;;;;;-1.10;99.90;;;;;;5054132;28;19936;-62
2024/02/07 09:19:00;;;;;;;;;;;-1.00;99.90;;;;;;5052871;28;20031;-63
2024/02/07 09:21:27;;;;;;;;;;;-0.90;99.90;;;;;;5051209;28;19934;-62
2024/02/07 09:23:56;;;;;;;;;;;-0.90;99.90;;;;;;5049109;28;19928;-63
2024/02/07 09:26:28;;;;;;;;;;;-0.90;99.90;;;;;;5045995;28;19925;-63
2024/02/07 09:28:54;;;;;;;;;;;-0.80;99.90;;;;;;5051367;28;19932;-69
2024/02/07 09:31:21;;;;;;;;;;;-0.80;99.90;;;;;;5050254;28;19968;-61
2024/02/07 09:33:48;;;;;;;;;;;-0.80;99.90;;;;;;5064972;28;20376;-64
2024/02/07 09:36:15;;;;;;;;;;;-0.70;99.90;;;;;;5057603;28;20448;-65
2024/02/07 09:38:42;;;;;;;;;;;-0.70;99.90;;;;;;5054053;28;20425;-65
2024/02/07 09:41:12;;;;;;;;;;;-0.70;99.90;;;;;;5056380;28;19929;-60
2024/02/07 09:43:38;;;;;;;;;;;-0.60;99.90;;;;;;5056983;28;19924;-62
2024/02/07 09:46:09;;;;;;;;;;;-0.60;99.90;;;;;;5062051;28;19971;-60
2024/02/07 09:48:36;;;;;;;;;;;-0.50;99.90;;;;;;5062129;28;19951;-66
2024/02/07 09:51:03;;;;;;;;;;;-0.50;99.90;;;;;;5066601;28;19925;-63
2024/02/07 09:53:31;;;;;;;;;;;-0.40;99.90;;;;;;5059982;28;19963;-62
2024/02/07 09:56:02;;;;;;;;;;;-0.30;99.90;;;;;;5061918;28;19928;-70
2024/02/07 09:58:29;;;;;;;;;;;-0.30;99.90;;;;;;5057496;28;20312;-66
2024/02/07 10:00:56;;;;;;;;;;;-0.20;99.90;;;;;;5052600;28;19929;-64
2024/02/07 10:03:23;;;;;;;;;;;0.00;99.90;;;;;;5056567;28;19990;-62
2024/02/07 10:05:56;;;;;;;;;;;0.10;99.90;;;;;;5053971;28;19932;-65
2024/02/07 10:08:23;;;;;;;;;;;0.30;99.90;;;;;;5054570;28;19924;-63
2024/02/07 10:10:51;;;;;;;;;;;0.40;99.90;;;;;;5056207;28;20574;-63
2024/02/07 10:13:17;;;;;;;;;;;0.40;99.90;;;;;;5054613;28;20027;-66
2024/02/07 10:15:45;;;;;;;;;;;0.50;99.90;;;;;;5051406;28;19975;-66
2024/02/07 10:18:12;;;;;;;;;;;0.50;99.90;;;;;;5057089;28;19924;-61
2024/02/07 10:20:39;;;;;;;;;;;0.50;99.90;;;;;;5056978;28;19933;-61
2024/02/07 10:23:09;;;;;;;;;;;0.50;99.90;;;;;;5062481;28;19925;-66
2024/02/07 10:25:36;;;;;;;;;;;0.50;99.90;;;;;;5058233;28;19997;-68
2024/02/07 10:28:04;;;;;;;;;;;0.40;99.90;;;;;;5057280;28;19929;-61
2024/02/07 10:30:31;;;;;;;;;;;0.30;99.90;;;;;;5053764;28;19940;-72
2024/02/07 10:32:59;;;;;;;;;;;0.20;99.90;;;;;;5055260;28;19925;-66
2024/02/07 10:35:26;;;;;;;;;;;0.10;99.90;;;;;;5051902;28;19933;-61
2024/02/07 10:37:55;;;;;;;;;;;0.10;99.90;;;;;;5053331;28;19960;-62
2024/02/07 10:40:22;;;;;;;;;;;0.00;99.90;;;;;;5039498;28;20386;-64
2024/02/07 10:42:52;;;;;;;;;;;0.00;99.90;;;;;;5056045;28;19924;-62
2024/02/07 10:45:19;;;;;;;;;;;0.00;99.90;;;;;;5054915;28;19931;-62
2024/02/07 10:47:46;;;;;;;;;;;0.00;99.90;;;;;;5058734;28;20010;-64
2024/02/07 10:50:15;;;;;;;;;;;0.00;99.90;;;;;;5054480;28;20447;-63
2024/02/07 10:52:43;;;;;;;;;;;-0.10;99.90;;;;;;5058308;28;20430;-61
2024/02/07 10:55:11;;;;;;;;;;;-0.20;99.90;;;;;;5044309;28;19929;-64
2024/02/07 10:57:39;;;;;;;;;;;-0.20;99.90;;;;;;5049695;28;19924;-68
2024/02/07 11:00:06;;;;;;;;;;;-0.20;99.90;;;;;;5051974;28;19925;-65
2024/02/07 11:02:33;;;;;;;;;;;-0.10;99.90;;;;;;5055626;28;20023;-66
2024/02/07 11:05:01;;;;;;;;;;;-0.10;99.90;;;;;;5054930;28;19928;-62
2024/02/07 11:07:28;;;;;;;;;;;-0.10;99.90;;;;;;5054780;28;19928;-62
2024/02/07 11:09:56;;;;;;;;;;;-0.10;99.90;;;;;;5053745;28;19947;-64
2024/02/07 11:12:23;;;;;;;;;;;-0.20;99.90;;;;;;5051575;28;19951;-60
2024/02/07 11:14:51;;;;;;;;;;;-0.20;99.90;;;;;;5049077;28;20301;-62
2024/02/07 11:17:18;;;;;;;;;;;-0.30;99.90;;;;;;5051584;28;19935;-64
2024/02/07 11:19:45;;;;;;;;;;;-0.40;99.90;;;;;;5060287;28;20560;-63
2024/02/07 11:22:23;;;;;;;;;;;-0.50;99.90;;;;;;5049722;28;19925;-62
2024/02/07 11:24:51;;;;;;;;;;;-0.50;99.90;;;;;;5057422;28;19925;-61
2024/02/07 11:27:18;;;;;;;;;;;-0.60;99.90;;;;;;5053944;28;19963;-62
2024/02/07 11:29:45;;;;;;;;;;;-0.60;99.90;;;;;;5048464;28;19932;-61
2024/02/07 11:32:13;;;;;;;;;;;-0.70;99.90;;;;;;5053679;28;19948;-61
2024/02/07 11:34:40;;;;;;;;;;;-0.60;99.90;;;;;;5063219;28;19924;-65
2024/02/07 11:37:08;;;;;;;;;;;-0.70;99.90;;;;;;5056410;28;19982;-62
2024/02/07 11:39:35;;;;;;;;;;;-0.70;99.90;;;;;;5062188;28;19928;-63
2024/02/07 11:42:10;;;;;;;;;;;-0.70;99.90;;;;;;5056871;28;19929;-61
2024/02/07 11:44:47;;;;;;;;;;;-0.70;99.90;;;;;;5059770;28;19929;-68
2024/02/07 11:47:27;;;;;;;;;;;-0.70;99.90;;;;;;5048655;28;19931;-64
2024/02/07 11:49:55;;;;;;;;;;;-0.70;99.90;;;;;;5050419;28;19967;-64
2024/02/07 11:52:28;;;;;;;;;;;-0.60;99.90;;;;;;5051499;28;19924;-64
2024/02/07 11:55:02;;;;;;;;;;;-0.60;99.90;;;;;;5055508;28;19975;-62
2024/02/07 11:57:33;;;;;;;;;;;-0.60;99.90;;;;;;5042491;28;19925;-65
2024/02/07 12:00:19;;;;;;;;;;;-0.50;99.90;;;;;;5050989;28;19940;-62
2024/02/07 12:02:50;;;;;;;;;;;-0.50;99.90;;;;;;5057770;28;20270;-61
2024/02/07 12:05:18;;;;;;;;;;;-0.50;99.90;;;;;;5061401;28;19939;-62
2024/02/07 12:07:48;;;;;;;;;;;-0.50;99.90;;;;;;5060306;28;19967;-63
2024/02/07 12:10:16;;;;;;;;;;;-0.50;99.90;;;;;;5055978;28;20027;-61
2024/02/07 12:12:43;;;;;;;;;;;-0.50;99.90;;;;;;5052862;28;20392;-61
2024/02/07 12:15:10;;;;;;;;;;;-0.40;99.90;;;;;;5054616;28;19975;-64
2024/02/07 12:17:36;;;;;;;;;;;-0.40;99.90;;;;;;5055894;28;19974;-64
2024/02/07 12:20:04;;;;;;;;;;;-0.30;99.90;;;;;;5055035;28;19929;-63
2024/02/07 12:22:33;;;;;;;;;;;-0.20;99.90;;;;;;5056667;28;19924;-65
2024/02/07 12:25:02;;;;;;;;;;;-0.20;99.90;;;;;;5057109;28;19935;-64
2024/02/07 12:27:29;;;;;;;;;;;-0.10;99.90;;;;;;5050487;28;19960;-64
2024/02/07 12:29:57;;;;;;;;;;;-0.20;99.90;;;;;;5052419;28;19967;-62
2024/02/07 12:32:24;;;;;;;;;;;-0.20;99.90;;;;;;5053774;28;19925;-62
2024/02/07 12:34:52;;;;;;;;;;;-0.10;99.90;;;;;;5059907;28;19931;-64
2024/02/07 12:37:19;;;;;;;;;;;-0.10;99.90;;;;;;5053575;28;19931;-65
2024/02/07 12:39:46;;;;;;;;;;;0.00;99.90;;;;;;5057908;28;19924;-62
2024/02/07 12:42:14;;;;;;;;;;;0.00;99.90;;;;;;5052135;28;19978;-62
2024/02/07 12:44:41;;;;;;;;;;;0.00;99.90;;;;;;5048636;28;20816;-62
2024/02/07 12:47:11;;;;;;;;;;;0.10;99.90;;;;;;5052692;28;19990;-61
2024/02/07 12:49:38;;;;;;;;;;;0.10;99.90;;;;;;5052521;28;19939;-61
2024/02/07 12:52:06;;;;;;;;;;;0.20;99.90;;;;;;5050995;28;19929;-62
2024/02/07 12:54:33;;;;;;;;;;;0.30;99.90;;;;;;5055046;28;19932;-62
2024/02/07 12:57:00;;;;;;;;;;;0.40;99.90;;;;;;5057359;28;20606;-65
2024/02/07 12:59:26;;;;;;;;;;;0.40;99.90;;;;;;5051086;28;19933;-63
2024/02/07 13:01:53;;;;;;;;;;;0.40;99.90;;;;;;5050310;28;19951;-61
2024/02/07 13:04:20;;;;;;;;;;;0.30;99.90;;;;;;5051925;28;19960;-62
2024/02/07 13:06:47;;;;;;;;;;;0.40;99.90;;;;;;5050661;28;20455;-60
2024/02/07 13:09:14;;;;;;;;;;;0.40;99.90;;;;;;5050723;28;19931;-65
2024/02/07 13:11:41;;;;;;;;;;;0.40;99.90;;;;;;5053397;28;19970;-63
2024/02/07 13:14:10;;;;;;;;;;;0.50;99.90;;;;;;5053751;28;19932;-60
2024/02/07 13:16:36;;;;;;;;;;;0.40;99.90;;;;;;5054879;28;20036;-62
2024/02/07 13:19:03;;;;;;;;;;;0.40;99.90;;;;;;5053266;28;19929;-63
2024/02/07 13:21:31;;;;;;;;;;;0.40;99.90;;;;;;5059106;28;19931;-61
2024/02/07 13:23:57;;;;;;;;;;;0.30;99.90;;;;;;5058307;28;19940;-60
2024/02/07 13:26:24;;;;;;;;;;;0.30;99.90;;;;;;5059079;28;19925;-60
2024/02/07 13:28:51;;;;;;;;;;;0.20;99.90;;;;;;5076183;28;19960;-62
2024/02/07 13:31:19;;;;;;;;;;;0.10;99.90;;;;;;5054610;28;19929;-63
2024/02/07 13:33:46;;;;;;;;;;;-0.10;99.90;;;;;;5055475;28;19964;-63
2024/02/07 13:36:13;;;;;;;;;;;-0.10;99.90;;;;;;5058694;28;19946;-62
2024/02/07 13:38:39;;;;;;;;;;;-0.20;99.90;;;;;;5053779;28;19924;-61
2024/02/07 13:41:06;;;;;;;;;;;-0.20;99.90;;;;;;5054719;28;19931;-67
2024/02/07 13:43:33;;;;;;;;;;;-0.20;99.90;;;;;;5062061;28;19929;-68
2024/02/07 13:46:00;;;;;;;;;;;-0.20;99.90;;;;;;5056079;28;19933;-65
2024/02/07 13:48:28;;;;;;;;;;;-0.20;99.90;;;;;;5059214;28;20444;-61
2024/02/07 13:50:57;;;;;;;;;;;-0.20;99.90;;;;;;5058085;28;19925;-62
2024/02/07 13:53:23;;;;;;;;;;;-0.20;99.90;;;;;;5058961;28;19928;-61
2024/02/07 13:55:50;;;;;;;;;;;-0.30;99.90;;;;;;5072232;28;19943;-63
2024/02/07 13:58:18;;;;;;;;;;;-0.30;99.90;;;;;;5056482;28;19924;-63
2024/02/07 14:00:45;;;;;;;;;;;-0.20;99.90;;;;;;5055178;28;20350;-64
2024/02/07 14:03:12;;;;;;;;;;;-0.30;99.90;;;;;;5058704;28;19925;-64
2024/02/07 14:05:39;;;;;;;;;;;-0.30;99.90;;;;;;5055325;28;19979;-63
2024/02/07 14:08:06;;;;;;;;;;;-0.40;99.90;;;;;;5062918;28;19925;-61
2024/02/07 14:10:33;;;;;;;;;;;-0.50;99.90;;;;;;5058164;28;19940;-60
2024/02/07 14:13:00;;;;;;;;;;;-0.50;99.90;;;;;;5056407;28;19929;-62
2024/02/07 14:15:27;;;;;;;;;;;-0.60;99.90;;;;;;5058209;28;19928;-61
2024/02/07 14:17:53;;;;;;;;;;;-0.60;99.90;;;;;;5058210;28;19925;-61
2024/02/07 14:20:20;;;;;;;;;;;-0.60;99.90;;;;;;5054673;28;19928;-64
2024/02/07 14:22:47;;;;;;;;;;;-0.70;99.90;;;;;;5056118;28;19964;-63
2024/02/07 14:25:14;;;;;;;;;;;-0.80;99.90;;;;;;5059151;28;19925;-62
2024/02/07 14:27:41;;;;;;;;;;;-0.90;99.90;;;;;;5057627;28;19925;-62
2024/02/07 14:30:08;;;;;;;;;;;-1.00;99.90;;;;;;5054640;28;19981;-60
2024/02/07 14:32:35;;;;;;;;;;;-1.10;99.90;;;;;;5055521;28;19936;-65
2024/02/07 14:35:02;;;;;;;;;;;-1.10;99.90;;;;;;5056920;28;20274;-64
2024/02/07 14:37:31;;;;;;;;;;;-1.20;99.90;;;;;;5057453;28;19929;-60
2024/02/07 14:39:58;;;;;;;;;;;-1.20;99.90;;;;;;5053874;28;19929;-62
2024/02/07 14:42:25;;;;;;;;;;;-1.20;99.90;;;;;;5055357;28;20314;-63
2024/02/07 14:44:51;;;;;;;;;;;-1.30;99.90;;;;;;5052580;28;19971;-64
2024/02/07 14:47:19;;;;;;;;;;;-1.30;99.90;;;;;;5054969;28;20593;-61
2024/02/07 14:49:46;;;;;;;;;;;-1.30;99.90;;;;;;5062205;28;19970;-65
2024/02/07 14:52:13;;;;;;;;;;;-1.30;99.90;;;;;;5053889;28;19925;-60
2024/02/07 14:54:42;;;;;;;;;;;-1.30;99.90;;;;;;5056620;28;20382;-63
2024/02/07 14:57:08;;;;;;;;;;;-1.30;99.90;;;;;;5054753;28;19925;-60
2024/02/07 14:59:36;;;;;;;;;;;-1.40;99.90;;;;;;5057923;28;19952;-70
2024/02/07 15:02:03;;;;;;;;;;;-1.40;99.90;;;;;;5062566;28;19925;-60
2024/02/07 15:04:31;;;;;;;;;;;-1.50;99.90;;;;;;5055778;28;19925;-61
2024/02/07 15:06:58;;;;;;;;;;;-1.50;99.90;;;;;;5054571;28;20290;-60
2024/02/07 15:09:24;;;;;;;;;;;-1.50;99.90;;;;;;5055647;28;19933;-61
2024/02/07 15:11:51;;;;;;;;;;;-1.60;99.90;;;;;;5050289;28;19928;-60
2024/02/07 15:14:18;;;;;;;;;;;-1.60;99.90;;;;;;5054007;28;19982;-61
2024/02/07 15:16:45;;;;;;;;;;;-1.70;99.90;;;;;;5051615;28;19925;-64
2024/02/07 15:19:12;;;;;;;;;;;-1.70;99.90;;;;;;5050731;28;19932;-63
2024/02/07 15:21:39;;;;;;;;;;;-1.70;99.90;;;;;;5047295;28;19948;-61
2024/02/07 15:24:08;;;;;;;;;;;-1.80;99.90;;;;;;5032010;28;19955;-69